Lanai City, Hawaii
Current Conditions -  °F | °C
As of 10:50 AM on Friday 21 Nov 2014 (Local Time) from PHJH Reporting Station
Rain Showers Rain Showers  
Wind Chill: 77°   Ceiling: 6000
Heat Index: 78°   Visibility: 10mi
Dew Point: 72°   Wind: 13mph
Humidity: 83%   Direction: 50°NE
Pressure: 30.06"   Gusts: 22mph
Location:  20.82°N, 156.91°W
Report Text: PHJH 212050Z 05011G19KT 10SM -SHRA FEW015 FEW030 SCT040 BKN060 25/22 A3006
Loading
Personal Weather Stations






























Interactive Weather Map New forecast layout! Learn more

10-Day Weather Forecast

Advertisements
Track Severe Weather on mobile